sensor_id;sensor_type;location;lat;lon;timestamp;P1;durP1;ratioP1;P2;durP2;ratioP2
15454;SDS011;21057;51.024;7.540;2023-05-02T11:43:00;25.47;;;23.63;;
15454;SDS011;21057;51.024;7.540;2023-05-02T11:45:39;25.23;;;23.43;;
15454;SDS011;21057;51.024;7.540;2023-05-02T11:48:06;24.97;;;23.17;;
15454;SDS011;21057;51.024;7.540;2023-05-02T11:50:39;24.23;;;22.17;;
15454;SDS011;21057;51.024;7.540;2023-05-02T11:53:09;24.23;;;22.60;;
15454;SDS011;21057;51.024;7.540;2023-05-02T11:55:37;24.13;;;22.00;;
15454;SDS011;21057;51.024;7.540;2023-05-02T11:58:12;25.27;;;23.10;;
15454;SDS011;21057;51.024;7.540;2023-05-02T12:00:41;24.70;;;22.87;;
15454;SDS011;21057;51.024;7.540;2023-05-02T12:03:17;24.37;;;22.67;;
15454;SDS011;21057;51.024;7.540;2023-05-02T12:05:54;24.33;;;22.63;;
15454;SDS011;21057;51.024;7.540;2023-05-02T12:08:23;24.80;;;23.00;;
15454;SDS011;21057;51.024;7.540;2023-05-02T12:10:52;26.37;;;24.57;;
15454;SDS011;21057;51.024;7.540;2023-05-02T12:13:22;25.63;;;23.73;;
15454;SDS011;21057;51.024;7.540;2023-05-02T12:15:51;24.17;;;22.57;;
15454;SDS011;21057;51.024;7.540;2023-05-02T12:18:20;25.00;;;23.30;;
15454;SDS011;21057;51.024;7.540;2023-05-02T12:20:49;24.43;;;22.73;;
15454;SDS011;21057;51.024;7.540;2023-05-02T12:23:17;23.80;;;22.17;;
15454;SDS011;21057;51.024;7.540;2023-05-02T12:25:46;24.53;;;22.63;;
15454;SDS011;21057;51.024;7.540;2023-05-02T12:28:15;23.60;;;21.97;;
15454;SDS011;21057;51.024;7.540;2023-05-02T12:30:46;24.83;;;22.83;;
15454;SDS011;21057;51.024;7.540;2023-05-02T12:33:14;22.40;;;20.90;;
15454;SDS011;21057;51.024;7.540;2023-05-02T12:35:41;23.57;;;21.87;;
15454;SDS011;21057;51.024;7.540;2023-05-02T12:38:10;22.50;;;20.80;;
15454;SDS011;21057;51.024;7.540;2023-05-02T12:40:44;22.55;;;20.95;;
15454;SDS011;21057;51.024;7.540;2023-05-02T12:43:16;23.38;;;21.48;;
15454;SDS011;21057;51.024;7.540;2023-05-02T12:45:45;23.48;;;21.73;;
15454;SDS011;21057;51.024;7.540;2023-05-02T12:48:17;23.67;;;21.70;;
15454;SDS011;21057;51.024;7.540;2023-05-02T12:50:53;22.50;;;20.77;;
15454;SDS011;21057;51.024;7.540;2023-05-02T12:53:36;22.48;;;20.77;;
15454;SDS011;21057;51.024;7.540;2023-05-02T12:56:04;22.30;;;20.70;;
15454;SDS011;21057;51.024;7.540;2023-05-02T12:58:39;23.13;;;21.33;;
15454;SDS011;21057;51.024;7.540;2023-05-02T13:01:08;22.55;;;20.98;;
15454;SDS011;21057;51.024;7.540;2023-05-02T13:03:35;23.50;;;21.70;;
15454;SDS011;21057;51.024;7.540;2023-05-02T13:06:02;21.92;;;20.35;;
15454;SDS011;21057;51.024;7.540;2023-05-02T13:08:30;21.48;;;19.88;;
15454;SDS011;21057;51.024;7.540;2023-05-02T13:10:58;21.55;;;19.95;;
15454;SDS011;21057;51.024;7.540;2023-05-02T13:13:25;22.25;;;20.35;;
15454;SDS011;21057;51.024;7.540;2023-05-02T13:15:52;21.77;;;20.15;;
15454;SDS011;21057;51.024;7.540;2023-05-02T13:18:20;22.15;;;20.55;;
15454;SDS011;21057;51.024;7.540;2023-05-02T13:20:47;22.20;;;20.60;;
15454;SDS011;21057;51.024;7.540;2023-05-02T13:23:14;21.07;;;19.57;;
15454;SDS011;21057;51.024;7.540;2023-05-02T13:25:41;20.83;;;19.43;;
15454;SDS011;21057;51.024;7.540;2023-05-02T13:28:08;22.20;;;20.60;;
15454;SDS011;21057;51.024;7.540;2023-05-02T13:30:35;20.90;;;19.27;;
15454;SDS011;21057;51.024;7.540;2023-05-02T13:33:02;21.20;;;19.80;;
15454;SDS011;21057;51.024;7.540;2023-05-02T13:35:30;21.40;;;19.90;;
15454;SDS011;21057;51.024;7.540;2023-05-02T13:37:57;20.87;;;19.30;;
15454;SDS011;21057;51.024;7.540;2023-05-02T13:40:24;21.70;;;20.20;;
15454;SDS011;21057;51.024;7.540;2023-05-02T13:42:51;21.27;;;19.77;;
15454;SDS011;21057;51.024;7.540;2023-05-02T13:45:17;22.02;;;20.33;;
15454;SDS011;21057;51.024;7.540;2023-05-02T13:47:45;21.67;;;20.10;;
15454;SDS011;21057;51.024;7.540;2023-05-02T13:50:11;22.13;;;20.43;;
15454;SDS011;21057;51.024;7.540;2023-05-02T13:52:40;21.40;;;19.93;;
15454;SDS011;21057;51.024;7.540;2023-05-02T13:55:07;21.97;;;20.30;;
15454;SDS011;21057;51.024;7.540;2023-05-02T13:57:34;21.67;;;20.17;;
15454;SDS011;21057;51.024;7.540;2023-05-02T14:00:01;22.27;;;20.47;;
15454;SDS011;21057;51.024;7.540;2023-05-02T14:02:28;20.67;;;19.37;;
15454;SDS011;21057;51.024;7.540;2023-05-02T14:04:54;21.50;;;19.90;;
15454;SDS011;21057;51.024;7.540;2023-05-02T14:07:21;20.33;;;18.93;;
15454;SDS011;21057;51.024;7.540;2023-05-02T14:09:50;21.50;;;19.50;;
15454;SDS011;21057;51.024;7.540;2023-05-02T14:12:16;20.40;;;19.10;;
15454;SDS011;21057;51.024;7.540;2023-05-02T14:14:43;21.92;;;20.30;;
15454;SDS011;21057;51.024;7.540;2023-05-02T14:17:10;21.05;;;19.63;;
15454;SDS011;21057;51.024;7.540;2023-05-02T14:19:37;20.60;;;19.20;;
15454;SDS011;21057;51.024;7.540;2023-05-02T14:22:04;23.60;;;20.90;;
15454;SDS011;21057;51.024;7.540;2023-05-02T14:24:31;21.88;;;19.98;;
15454;SDS011;21057;51.024;7.540;2023-05-02T14:26:59;22.65;;;20.83;;
15454;SDS011;21057;51.024;7.540;2023-05-02T14:29:26;21.80;;;20.10;;
15454;SDS011;21057;51.024;7.540;2023-05-02T14:31:54;22.60;;;20.80;;
15454;SDS011;21057;51.024;7.540;2023-05-02T14:34:21;22.63;;;20.70;;
15454;SDS011;21057;51.024;7.540;2023-05-02T14:36:50;22.05;;;20.30;;
15454;SDS011;21057;51.024;7.540;2023-05-02T14:39:17;22.35;;;20.42;;
15454;SDS011;21057;51.024;7.540;2023-05-02T14:41:44;22.00;;;20.30;;
15454;SDS011;21057;51.024;7.540;2023-05-02T14:44:12;21.37;;;19.60;;
15454;SDS011;21057;51.024;7.540;2023-05-02T14:46:39;22.27;;;20.52;;
15454;SDS011;21057;51.024;7.540;2023-05-02T14:49:06;22.67;;;21.00;;
15454;SDS011;21057;51.024;7.540;2023-05-02T14:51:35;22.30;;;20.65;;
15454;SDS011;21057;51.024;7.540;2023-05-02T14:54:03;21.73;;;20.23;;
15454;SDS011;21057;51.024;7.540;2023-05-02T14:56:31;23.45;;;20.60;;
15454;SDS011;21057;51.024;7.540;2023-05-02T14:58:58;21.33;;;19.92;;
15454;SDS011;21057;51.024;7.540;2023-05-02T15:01:26;21.38;;;19.65;;
15454;SDS011;21057;51.024;7.540;2023-05-02T15:03:53;22.42;;;20.67;;
15454;SDS011;21057;51.024;7.540;2023-05-02T15:06:20;21.02;;;19.63;;
15454;SDS011;21057;51.024;7.540;2023-05-02T15:08:46;21.02;;;19.70;;
15454;SDS011;21057;51.024;7.540;2023-05-02T15:11:14;21.38;;;19.98;;
15454;SDS011;21057;51.024;7.540;2023-05-02T15:13:41;22.15;;;20.38;;
15454;SDS011;21057;51.024;7.540;2023-05-02T15:16:08;21.77;;;19.90;;
15454;SDS011;21057;51.024;7.540;2023-05-02T15:18:37;20.95;;;19.55;;
15454;SDS011;21057;51.024;7.540;2023-05-02T15:21:04;20.88;;;19.25;;
15454;SDS011;21057;51.024;7.540;2023-05-02T15:23:31;20.65;;;19.15;;
15454;SDS011;21057;51.024;7.540;2023-05-02T15:25:58;21.63;;;20.00;;
15454;SDS011;21057;51.024;7.540;2023-05-02T15:28:25;22.50;;;20.58;;
15454;SDS011;21057;51.024;7.540;2023-05-02T15:30:52;21.33;;;20.02;;
15454;SDS011;21057;51.024;7.540;2023-05-02T15:33:19;21.20;;;19.48;;
15454;SDS011;21057;51.024;7.540;2023-05-02T15:35:52;21.67;;;20.17;;
15454;SDS011;21057;51.024;7.540;2023-05-02T15:38:20;20.38;;;19.08;;
15454;SDS011;21057;51.024;7.540;2023-05-02T15:40:54;20.90;;;19.50;;
15454;SDS011;21057;51.024;7.540;2023-05-02T15:43:22;21.52;;;19.92;;
15454;SDS011;21057;51.024;7.540;2023-05-02T15:45:49;21.40;;;19.75;;
15454;SDS011;21057;51.024;7.540;2023-05-02T15:48:17;20.92;;;19.52;;
15454;SDS011;21057;51.024;7.540;2023-05-02T15:50:43;21.15;;;19.33;;
15454;SDS011;21057;51.024;7.540;2023-05-02T15:53:12;20.33;;;18.92;;
15454;SDS011;21057;51.024;7.540;2023-05-02T15:55:39;20.80;;;18.98;;
15454;SDS011;21057;51.024;7.540;2023-05-02T15:58:07;20.23;;;18.80;;
15454;SDS011;21057;51.024;7.540;2023-05-02T16:00:34;19.63;;;18.33;;
15454;SDS011;21057;51.024;7.540;2023-05-02T16:03:01;19.73;;;18.42;;
15454;SDS011;21057;51.024;7.540;2023-05-02T16:05:28;20.55;;;19.02;;
15454;SDS011;21057;51.024;7.540;2023-05-02T16:07:55;20.13;;;18.90;;
15454;SDS011;21057;51.024;7.540;2023-05-02T16:10:23;20.38;;;18.95;;
15454;SDS011;21057;51.024;7.540;2023-05-02T16:12:50;20.38;;;18.92;;
15454;SDS011;21057;51.024;7.540;2023-05-02T16:15:17;19.75;;;18.48;;
15454;SDS011;21057;51.024;7.540;2023-05-02T16:17:44;20.10;;;18.85;;
15454;SDS011;21057;51.024;7.540;2023-05-02T16:20:12;20.90;;;19.35;;
15454;SDS011;21057;51.024;7.540;2023-05-02T16:22:41;21.13;;;19.17;;
15454;SDS011;21057;51.024;7.540;2023-05-02T16:25:10;21.08;;;19.60;;
15454;SDS011;21057;51.024;7.540;2023-05-02T16:27:38;21.15;;;19.63;;
15454;SDS011;21057;51.024;7.540;2023-05-02T16:30:05;22.23;;;20.42;;
15454;SDS011;21057;51.024;7.540;2023-05-02T16:32:33;21.83;;;20.10;;
15454;SDS011;21057;51.024;7.540;2023-05-02T16:35:01;21.02;;;19.52;;
15454;SDS011;21057;51.024;7.540;2023-05-02T16:37:29;20.55;;;18.98;;
15454;SDS011;21057;51.024;7.540;2023-05-02T16:39:57;21.02;;;19.50;;
15454;SDS011;21057;51.024;7.540;2023-05-02T16:42:24;20.20;;;18.85;;
15454;SDS011;21057;51.024;7.540;2023-05-02T16:44:54;20.38;;;18.98;;
15454;SDS011;21057;51.024;7.540;2023-05-02T16:47:21;20.65;;;19.10;;
15454;SDS011;21057;51.024;7.540;2023-05-02T16:49:51;21.42;;;19.83;;
15454;SDS011;21057;51.024;7.540;2023-05-02T16:52:18;20.70;;;19.40;;
15454;SDS011;21057;51.024;7.540;2023-05-02T16:54:45;21.23;;;19.58;;
15454;SDS011;21057;51.024;7.540;2023-05-02T16:57:12;21.73;;;20.33;;
15454;SDS011;21057;51.024;7.540;2023-05-02T16:59:43;20.80;;;19.40;;
15454;SDS011;21057;51.024;7.540;2023-05-02T17:02:12;20.83;;;19.42;;
15454;SDS011;21057;51.024;7.540;2023-05-02T17:04:39;19.77;;;18.52;;
15454;SDS011;21057;51.024;7.540;2023-05-02T17:07:06;20.42;;;19.00;;
15454;SDS011;21057;51.024;7.540;2023-05-02T17:09:33;21.67;;;20.13;;
15454;SDS011;21057;51.024;7.540;2023-05-02T17:12:01;20.63;;;19.13;;
15454;SDS011;21057;51.024;7.540;2023-05-02T17:14:28;20.63;;;19.23;;
15454;SDS011;21057;51.024;7.540;2023-05-02T17:16:59;20.47;;;19.07;;
15454;SDS011;21057;51.024;7.540;2023-05-02T17:19:28;20.43;;;19.03;;
15454;SDS011;21057;51.024;7.540;2023-05-02T17:21:55;19.63;;;18.40;;
15454;SDS011;21057;51.024;7.540;2023-05-02T17:24:22;20.37;;;18.93;;
15454;SDS011;21057;51.024;7.540;2023-05-02T17:26:50;20.03;;;18.63;;
15454;SDS011;21057;51.024;7.540;2023-05-02T17:29:17;21.33;;;19.87;;
15454;SDS011;21057;51.024;7.540;2023-05-02T17:31:44;21.73;;;20.00;;
15454;SDS011;21057;51.024;7.540;2023-05-02T17:34:11;20.97;;;19.53;;
15454;SDS011;21057;51.024;7.540;2023-05-02T17:36:39;21.00;;;19.50;;
15454;SDS011;21057;51.024;7.540;2023-05-02T17:39:07;19.87;;;18.67;;
15454;SDS011;21057;51.024;7.540;2023-05-02T17:41:36;19.60;;;18.30;;
15454;SDS011;21057;51.024;7.540;2023-05-02T17:44:03;19.57;;;18.33;;
15454;SDS011;21057;51.024;7.540;2023-05-02T17:46:30;21.00;;;18.83;;
15454;SDS011;21057;51.024;7.540;2023-05-02T17:48:57;20.47;;;18.97;;
15454;SDS011;21057;51.024;7.540;2023-05-02T17:51:24;20.47;;;18.77;;
15454;SDS011;21057;51.024;7.540;2023-05-02T17:53:53;19.77;;;18.30;;
15454;SDS011;21057;51.024;7.540;2023-05-02T17:56:19;21.10;;;19.47;;
15454;SDS011;21057;51.024;7.540;2023-05-02T17:58:46;20.50;;;19.10;;
15454;SDS011;21057;51.024;7.540;2023-05-02T18:01:13;20.30;;;18.90;;
15454;SDS011;21057;51.024;7.540;2023-05-02T18:03:41;19.93;;;18.63;;
15454;SDS011;21057;51.024;7.540;2023-05-02T18:06:13;20.53;;;19.10;;
15454;SDS011;21057;51.024;7.540;2023-05-02T18:08:40;20.70;;;18.80;;
15454;SDS011;21057;51.024;7.540;2023-05-02T18:11:13;21.17;;;19.23;;
15454;SDS011;21057;51.024;7.540;2023-05-02T18:13:41;20.60;;;18.73;;
15454;SDS011;21057;51.024;7.540;2023-05-02T18:16:08;20.03;;;18.57;;
15454;SDS011;21057;51.024;7.540;2023-05-02T18:18:35;20.20;;;18.87;;
15454;SDS011;21057;51.024;7.540;2023-05-02T18:21:02;19.83;;;18.50;;
15454;SDS011;21057;51.024;7.540;2023-05-02T18:23:30;19.60;;;18.30;;
15454;SDS011;21057;51.024;7.540;2023-05-02T18:25:57;20.10;;;18.63;;
15454;SDS011;21057;51.024;7.540;2023-05-02T18:28:25;20.43;;;19.03;;
15454;SDS011;21057;51.024;7.540;2023-05-02T18:30:52;21.07;;;19.37;;
15454;SDS011;21057;51.024;7.540;2023-05-02T18:33:18;20.47;;;18.83;;
15454;SDS011;21057;51.024;7.540;2023-05-02T18:35:45;20.97;;;19.17;;
15454;SDS011;21057;51.024;7.540;2023-05-02T18:38:13;21.23;;;19.73;;
15454;SDS011;21057;51.024;7.540;2023-05-02T18:40:40;21.63;;;20.13;;
15454;SDS011;21057;51.024;7.540;2023-05-02T18:43:07;22.10;;;20.40;;
15454;SDS011;21057;51.024;7.540;2023-05-02T18:45:36;22.23;;;20.60;;
15454;SDS011;21057;51.024;7.540;2023-05-02T18:48:02;21.93;;;20.33;;
15454;SDS011;21057;51.024;7.540;2023-05-02T18:50:29;22.53;;;20.90;;
15454;SDS011;21057;51.024;7.540;2023-05-02T18:52:56;22.80;;;20.80;;
15454;SDS011;21057;51.024;7.540;2023-05-02T18:55:23;22.23;;;20.23;;
15454;SDS011;21057;51.024;7.540;2023-05-02T18:57:50;21.67;;;20.17;;
15454;SDS011;21057;51.024;7.540;2023-05-02T19:00:17;22.07;;;20.47;;
15454;SDS011;21057;51.024;7.540;2023-05-02T19:02:46;21.43;;;19.97;;
15454;SDS011;21057;51.024;7.540;2023-05-02T19:05:16;21.47;;;19.83;;
15454;SDS011;21057;51.024;7.540;2023-05-02T19:07:42;22.10;;;20.07;;
15454;SDS011;21057;51.024;7.540;2023-05-02T19:10:09;20.80;;;19.30;;
15454;SDS011;21057;51.024;7.540;2023-05-02T19:12:36;20.80;;;19.30;;
15454;SDS011;21057;51.024;7.540;2023-05-02T19:15:03;22.03;;;20.00;;
15454;SDS011;21057;51.024;7.540;2023-05-02T19:17:31;22.47;;;20.40;;
15454;SDS011;21057;51.024;7.540;2023-05-02T19:20:00;23.07;;;21.17;;
15454;SDS011;21057;51.024;7.540;2023-05-02T19:22:28;21.03;;;19.63;;
15454;SDS011;21057;51.024;7.540;2023-05-02T19:24:56;21.67;;;20.17;;
15454;SDS011;21057;51.024;7.540;2023-05-02T19:27:23;21.63;;;20.07;;
15454;SDS011;21057;51.024;7.540;2023-05-02T19:29:51;22.67;;;21.03;;
15454;SDS011;21057;51.024;7.540;2023-05-02T19:32:18;22.17;;;20.37;;
15454;SDS011;21057;51.024;7.540;2023-05-02T19:34:46;20.57;;;19.17;;
15454;SDS011;21057;51.024;7.540;2023-05-02T19:37:14;22.00;;;20.30;;
15454;SDS011;21057;51.024;7.540;2023-05-02T19:39:41;21.87;;;20.37;;
15454;SDS011;21057;51.024;7.540;2023-05-02T19:42:08;21.90;;;20.10;;
15454;SDS011;21057;51.024;7.540;2023-05-02T19:44:35;20.80;;;19.30;;
15454;SDS011;21057;51.024;7.540;2023-05-02T19:47:02;21.73;;;20.33;;
15454;SDS011;21057;51.024;7.540;2023-05-02T19:49:29;22.03;;;20.37;;
15454;SDS011;21057;51.024;7.540;2023-05-02T19:51:56;22.83;;;20.87;;
15454;SDS011;21057;51.024;7.540;2023-05-02T19:54:24;20.90;;;19.50;;
15454;SDS011;21057;51.024;7.540;2023-05-02T19:56:51;21.50;;;19.93;;
15454;SDS011;21057;51.024;7.540;2023-05-02T19:59:17;22.07;;;20.37;;
15454;SDS011;21057;51.024;7.540;2023-05-02T20:01:44;21.37;;;19.67;;
15454;SDS011;21057;51.024;7.540;2023-05-02T20:04:11;20.67;;;19.17;;
15454;SDS011;21057;51.024;7.540;2023-05-02T20:06:38;21.23;;;19.77;;
15454;SDS011;21057;51.024;7.540;2023-05-02T20:09:05;21.33;;;19.57;;
15454;SDS011;21057;51.024;7.540;2023-05-02T20:11:33;20.80;;;19.40;;
15454;SDS011;21057;51.024;7.540;2023-05-02T20:14:00;20.93;;;19.30;;
15454;SDS011;21057;51.024;7.540;2023-05-02T20:16:27;22.13;;;20.30;;
15454;SDS011;21057;51.024;7.540;2023-05-02T20:18:55;24.90;;;20.83;;
15454;SDS011;21057;51.024;7.540;2023-05-02T20:21:24;27.40;;;20.03;;
15454;SDS011;21057;51.024;7.540;2023-05-02T20:23:51;21.33;;;19.93;;
15454;SDS011;21057;51.024;7.540;2023-05-02T20:26:18;21.80;;;20.30;;
15454;SDS011;21057;51.024;7.540;2023-05-02T20:28:46;21.43;;;19.93;;
15454;SDS011;21057;51.024;7.540;2023-05-02T20:31:13;20.77;;;19.33;;
15454;SDS011;21057;51.024;7.540;2023-05-02T20:33:40;21.80;;;19.70;;
15454;SDS011;21057;51.024;7.540;2023-05-02T20:36:07;21.43;;;19.93;;
15454;SDS011;21057;51.024;7.540;2023-05-02T20:38:34;21.57;;;20.00;;
15454;SDS011;21057;51.024;7.540;2023-05-02T20:41:06;21.30;;;19.90;;
15454;SDS011;21057;51.024;7.540;2023-05-02T20:43:35;21.20;;;19.73;;
15454;SDS011;21057;51.024;7.540;2023-05-02T20:46:08;21.07;;;19.47;;
15454;SDS011;21057;51.024;7.540;2023-05-02T20:48:36;21.77;;;20.37;;
15454;SDS011;21057;51.024;7.540;2023-05-02T20:51:03;20.73;;;19.17;;
15454;SDS011;21057;51.024;7.540;2023-05-02T20:53:30;21.00;;;19.70;;
15454;SDS011;21057;51.024;7.540;2023-05-02T20:55:56;21.27;;;19.47;;
15454;SDS011;21057;51.024;7.540;2023-05-02T20:58:23;21.37;;;19.50;;
15454;SDS011;21057;51.024;7.540;2023-05-02T21:00:50;19.80;;;18.60;;
15454;SDS011;21057;51.024;7.540;2023-05-02T21:03:19;20.67;;;19.20;;
15454;SDS011;21057;51.024;7.540;2023-05-02T21:05:49;20.10;;;18.80;;
15454;SDS011;21057;51.024;7.540;2023-05-02T21:08:17;20.27;;;19.00;;
15454;SDS011;21057;51.024;7.540;2023-05-02T21:10:44;21.10;;;19.50;;
15454;SDS011;21057;51.024;7.540;2023-05-02T21:13:11;21.13;;;19.53;;
15454;SDS011;21057;51.024;7.540;2023-05-02T21:15:38;20.47;;;18.97;;
15454;SDS011;21057;51.024;7.540;2023-05-02T21:18:05;20.47;;;19.17;;
15454;SDS011;21057;51.024;7.540;2023-05-02T21:20:33;21.30;;;19.77;;
15454;SDS011;21057;51.024;7.540;2023-05-02T21:23:02;21.03;;;19.53;;
15454;SDS011;21057;51.024;7.540;2023-05-02T21:25:29;21.83;;;20.13;;
15454;SDS011;21057;51.024;7.540;2023-05-02T21:27:55;21.60;;;19.57;;
15454;SDS011;21057;51.024;7.540;2023-05-02T21:30:22;21.90;;;20.40;;
15454;SDS011;21057;51.024;7.540;2023-05-02T21:32:49;21.23;;;19.33;;
15454;SDS011;21057;51.024;7.540;2023-05-02T21:35:16;20.63;;;19.33;;
15454;SDS011;21057;51.024;7.540;2023-05-02T21:37:44;22.30;;;19.90;;
15454;SDS011;21057;51.024;7.540;2023-05-02T21:40:11;21.93;;;19.77;;
15454;SDS011;21057;51.024;7.540;2023-05-02T21:42:38;21.10;;;19.40;;
15454;SDS011;21057;51.024;7.540;2023-05-02T21:45:06;20.50;;;19.23;;
15454;SDS011;21057;51.024;7.540;2023-05-02T21:47:33;19.40;;;18.20;;
15454;SDS011;21057;51.024;7.540;2023-05-02T21:50:00;20.70;;;19.47;;
15454;SDS011;21057;51.024;7.540;2023-05-02T21:52:29;21.30;;;19.80;;
15454;SDS011;21057;51.024;7.540;2023-05-02T21:54:58;20.97;;;19.57;;
15454;SDS011;21057;51.024;7.540;2023-05-02T21:57:25;20.50;;;19.20;;
15454;SDS011;21057;51.024;7.540;2023-05-02T21:59:52;20.40;;;19.03;;
15454;SDS011;21057;51.024;7.540;2023-05-02T22:02:19;22.47;;;20.07;;
15454;SDS011;21057;51.024;7.540;2023-05-02T22:04:47;21.53;;;19.93;;
15454;SDS011;21057;51.024;7.540;2023-05-02T22:07:14;20.80;;;19.50;;
15454;SDS011;21057;51.024;7.540;2023-05-02T22:09:41;20.73;;;19.10;;
15454;SDS011;21057;51.024;7.540;2023-05-02T22:12:09;20.77;;;19.30;;
15454;SDS011;21057;51.024;7.540;2023-05-02T22:14:36;20.90;;;19.40;;
15454;SDS011;21057;51.024;7.540;2023-05-02T22:17:03;21.80;;;19.10;;
15454;SDS011;21057;51.024;7.540;2023-05-02T22:19:31;20.97;;;19.33;;
15454;SDS011;21057;51.024;7.540;2023-05-02T22:21:58;20.60;;;19.30;;
15454;SDS011;21057;51.024;7.540;2023-05-02T22:24:25;20.47;;;19.00;;
15454;SDS011;21057;51.024;7.540;2023-05-02T22:26:52;20.77;;;19.20;;
15454;SDS011;21057;51.024;7.540;2023-05-02T22:29:21;20.97;;;19.67;;
15454;SDS011;21057;51.024;7.540;2023-05-02T22:31:48;19.77;;;18.47;;
15454;SDS011;21057;51.024;7.540;2023-05-02T22:34:16;20.07;;;18.77;;
15454;SDS011;21057;51.024;7.540;2023-05-02T22:36:43;21.33;;;19.87;;
15454;SDS011;21057;51.024;7.540;2023-05-02T22:39:10;20.50;;;19.17;;
15454;SDS011;21057;51.024;7.540;2023-05-02T22:41:39;23.37;;;21.57;;
15454;SDS011;21057;51.024;7.540;2023-05-02T22:44:06;22.13;;;20.30;;
15454;SDS011;21057;51.024;7.540;2023-05-02T22:46:34;21.03;;;19.53;;
15454;SDS011;21057;51.024;7.540;2023-05-02T22:49:02;21.43;;;19.93;;
15454;SDS011;21057;51.024;7.540;2023-05-02T22:51:30;21.33;;;19.87;;
15454;SDS011;21057;51.024;7.540;2023-05-02T22:53:57;21.87;;;20.00;;
15454;SDS011;21057;51.024;7.540;2023-05-02T22:56:25;20.93;;;19.17;;
15454;SDS011;21057;51.024;7.540;2023-05-02T22:58:52;21.00;;;19.30;;
15454;SDS011;21057;51.024;7.540;2023-05-02T23:01:19;21.40;;;19.63;;
15454;SDS011;21057;51.024;7.540;2023-05-02T23:03:47;20.97;;;19.40;;
15454;SDS011;21057;51.024;7.540;2023-05-02T23:06:14;18.80;;;17.67;;
15454;SDS011;21057;51.024;7.540;2023-05-02T23:08:41;20.93;;;19.37;;
15454;SDS011;21057;51.024;7.540;2023-05-02T23:11:08;20.20;;;18.80;;
15454;SDS011;21057;51.024;7.540;2023-05-02T23:13:35;19.87;;;18.63;;
15454;SDS011;21057;51.024;7.540;2023-05-02T23:16:01;20.43;;;19.13;;
15454;SDS011;21057;51.024;7.540;2023-05-02T23:18:29;19.17;;;18.07;;
15454;SDS011;21057;51.024;7.540;2023-05-02T23:20:57;19.57;;;18.37;;
15454;SDS011;21057;51.024;7.540;2023-05-02T23:23:24;19.80;;;18.60;;
15454;SDS011;21057;51.024;7.540;2023-05-02T23:25:51;20.83;;;18.80;;
15454;SDS011;21057;51.024;7.540;2023-05-02T23:28:17;20.27;;;18.90;;
15454;SDS011;21057;51.024;7.540;2023-05-02T23:30:44;20.47;;;18.93;;
15454;SDS011;21057;51.024;7.540;2023-05-02T23:33:11;20.40;;;18.57;;
15454;SDS011;21057;51.024;7.540;2023-05-02T23:35:39;19.87;;;18.57;;
15454;SDS011;21057;51.024;7.540;2023-05-02T23:38:07;20.30;;;18.80;;
15454;SDS011;21057;51.024;7.540;2023-05-02T23:40:34;19.13;;;18.03;;
15454;SDS011;21057;51.024;7.540;2023-05-02T23:43:01;20.33;;;18.57;;
15454;SDS011;21057;51.024;7.540;2023-05-02T23:45:27;19.17;;;18.07;;
15454;SDS011;21057;51.024;7.540;2023-05-02T23:47:54;19.90;;;18.37;;
15454;SDS011;21057;51.024;7.540;2023-05-02T23:50:21;19.57;;;18.27;;
15454;SDS011;21057;51.024;7.540;2023-05-02T23:52:48;18.80;;;17.60;;
15454;SDS011;21057;51.024;7.540;2023-05-02T23:55:16;19.73;;;18.47;;
15454;SDS011;21057;51.024;7.540;2023-05-02T23:57:43;18.83;;;17.63;;
